N18JF KPDX-KEUG
Flight info
| Callsign | N18JF |
|---|---|
| Flight time | 0h 47m |
| Altitude | 6000 |
| Route | PTLD2 OSWEG V23 KEUG |
| Aircraft | DA50/L-BDGRSY/LB2 |
Departure
| Time | 2026-05-08 01:21 |
|---|---|
| Airport | Portland International Airport (KPDX) |
Arrival
| Time | 2026-05-08 02:09 |
|---|---|
| Airport | Eugene Airport (KEUG) |
| Time | Latitude | Longitude | Altitude | Speed | Heading |
|---|---|---|---|---|---|
| 2026-05-08 00:52 | 45.58553 | -122.57828 | 26 ft | 0 kts | 117° |
| 2026-05-08 01:13 | 45.58553 | -122.57827 | 26 ft | 1 kts | 118° |
| 2026-05-08 01:14 | 45.58543 | -122.57787 | 26 ft | 8 kts | 102° |
| 2026-05-08 01:14 | 45.58553 | -122.57694 | 26 ft | 9 kts | 53° |
| 2026-05-08 01:14 | 45.58591 | -122.57650 | 26 ft | 6 kts | 56° |
| 2026-05-08 01:14 | 45.58582 | -122.57586 | 26 ft | 9 kts | 114° |
| 2026-05-08 01:15 | 45.58548 | -122.57494 | 26 ft | 13 kts | 119° |
| 2026-05-08 01:15 | 45.58505 | -122.57383 | 26 ft | 14 kts | 120° |
| 2026-05-08 01:15 | 45.58456 | -122.57259 | 26 ft | 17 kts | 118° |
| 2026-05-08 01:15 | 45.58403 | -122.57120 | 26 ft | 17 kts | 118° |
| 2026-05-08 01:16 | 45.58358 | -122.57005 | 26 ft | 12 kts | 118° |
| 2026-05-08 01:16 | 45.58340 | -122.56933 | 26 ft | 0 kts | 80° |
| 2026-05-08 01:16 | 45.58345 | -122.56912 | 26 ft | 0 kts | 68° |
| 2026-05-08 01:19 | 45.58358 | -122.56890 | 26 ft | 10 kts | 33° |
| 2026-05-08 01:20 | 45.58445 | -122.56914 | 26 ft | 19 kts | 302° |
| 2026-05-08 01:20 | 45.58496 | -122.57059 | 26 ft | 18 kts | 301° |
| 2026-05-08 01:20 | 45.58605 | -122.57328 | 26 ft | 56 kts | 297° |
| 2026-05-08 01:20 | 45.58811 | -122.57851 | 40 ft | 77 kts | 298° |
| 2026-05-08 01:21 | 45.59063 | -122.58424 | 164 ft | 75 kts | 299° |
| 2026-05-08 01:21 | 45.59306 | -122.58977 | 306 ft | 75 kts | 301° |
| 2026-05-08 01:21 | 45.59603 | -122.59642 | 455 ft | 87 kts | 299° |
| 2026-05-08 01:21 | 45.59905 | -122.60397 | 690 ft | 89 kts | 298° |
| 2026-05-08 01:22 | 45.60207 | -122.61172 | 912 ft | 90 kts | 297° |
| 2026-05-08 01:22 | 45.60506 | -122.61956 | 1135 ft | 90 kts | 297° |
| 2026-05-08 01:22 | 45.60794 | -122.62718 | 1350 ft | 91 kts | 297° |
| 2026-05-08 01:22 | 45.61047 | -122.63392 | 1538 ft | 91 kts | 297° |
| 2026-05-08 01:23 | 45.61280 | -122.64017 | 1713 ft | 92 kts | 298° |
| 2026-05-08 01:23 | 45.61559 | -122.64780 | 1923 ft | 92 kts | 297° |
| 2026-05-08 01:23 | 45.61849 | -122.65573 | 2137 ft | 93 kts | 297° |
| 2026-05-08 01:23 | 45.62127 | -122.66330 | 2343 ft | 93 kts | 297° |
| 2026-05-08 01:24 | 45.62405 | -122.67081 | 2543 ft | 94 kts | 297° |
| 2026-05-08 01:24 | 45.62685 | -122.67831 | 2745 ft | 94 kts | 297° |
| 2026-05-08 01:24 | 45.62970 | -122.68594 | 2950 ft | 95 kts | 296° |
| 2026-05-08 01:24 | 45.62992 | -122.69486 | 3173 ft | 96 kts | 248° |
| 2026-05-08 01:25 | 45.62574 | -122.70132 | 3392 ft | 97 kts | 207° |
| 2026-05-08 01:25 | 45.61958 | -122.70297 | 3606 ft | 98 kts | 184° |
| 2026-05-08 01:25 | 45.61335 | -122.70332 | 3807 ft | 99 kts | 183° |
| 2026-05-08 01:25 | 45.60724 | -122.70358 | 4003 ft | 99 kts | 183° |
| 2026-05-08 01:26 | 45.60101 | -122.70393 | 4204 ft | 99 kts | 184° |
| 2026-05-08 01:26 | 45.59474 | -122.70432 | 4404 ft | 99 kts | 185° |
| 2026-05-08 01:26 | 45.58859 | -122.70476 | 4600 ft | 99 kts | 186° |
| 2026-05-08 01:26 | 45.58231 | -122.70524 | 4801 ft | 99 kts | 186° |
| 2026-05-08 01:27 | 45.57607 | -122.70575 | 5000 ft | 100 kts | 186° |
| 2026-05-08 01:27 | 45.56976 | -122.70631 | 5201 ft | 100 kts | 186° |
| 2026-05-08 01:27 | 45.56360 | -122.70687 | 5397 ft | 100 kts | 186° |
| 2026-05-08 01:27 | 45.55727 | -122.70744 | 5599 ft | 99 kts | 187° |
| 2026-05-08 01:28 | 45.55108 | -122.70802 | 5798 ft | 99 kts | 188° |
| 2026-05-08 01:28 | 45.54471 | -122.70863 | 5951 ft | 105 kts | 188° |
| 2026-05-08 01:28 | 45.53765 | -122.70938 | 5992 ft | 120 kts | 188° |
| 2026-05-08 01:28 | 45.52979 | -122.71017 | 5997 ft | 133 kts | 187° |
| 2026-05-08 01:29 | 45.52100 | -122.71104 | 5992 ft | 142 kts | 187° |
| 2026-05-08 01:29 | 45.51191 | -122.71194 | 5987 ft | 148 kts | 187° |
| 2026-05-08 01:29 | 45.50257 | -122.71286 | 5985 ft | 151 kts | 187° |
| 2026-05-08 01:29 | 45.49305 | -122.71378 | 5983 ft | 154 kts | 187° |
| 2026-05-08 01:30 | 45.48347 | -122.71474 | 5981 ft | 155 kts | 187° |
| 2026-05-08 01:30 | 45.47377 | -122.71570 | 5977 ft | 153 kts | 187° |
| 2026-05-08 01:30 | 45.46437 | -122.71661 | 5977 ft | 152 kts | 187° |
| 2026-05-08 01:30 | 45.45503 | -122.71754 | 5977 ft | 150 kts | 187° |
| 2026-05-08 01:31 | 45.44577 | -122.71848 | 5976 ft | 150 kts | 187° |
| 2026-05-08 01:31 | 45.43642 | -122.71942 | 5975 ft | 149 kts | 187° |
| 2026-05-08 01:31 | 45.42724 | -122.72034 | 5976 ft | 149 kts | 187° |
| 2026-05-08 01:31 | 45.41814 | -122.72260 | 5975 ft | 147 kts | 198° |
| 2026-05-08 01:32 | 45.40918 | -122.72603 | 5975 ft | 147 kts | 198° |
| 2026-05-08 01:32 | 45.40018 | -122.72957 | 5976 ft | 147 kts | 198° |
| 2026-05-08 01:32 | 45.39133 | -122.73309 | 5977 ft | 149 kts | 198° |
| 2026-05-08 01:32 | 45.38223 | -122.73671 | 5977 ft | 151 kts | 198° |
| 2026-05-08 01:33 | 45.37297 | -122.74037 | 5978 ft | 153 kts | 198° |
| 2026-05-08 01:33 | 45.36375 | -122.74400 | 5978 ft | 154 kts | 198° |
| 2026-05-08 01:33 | 45.35430 | -122.74772 | 5977 ft | 154 kts | 198° |
| 2026-05-08 01:33 | 45.34494 | -122.75140 | 5977 ft | 155 kts | 198° |
| 2026-05-08 01:34 | 45.33544 | -122.75514 | 5965 ft | 155 kts | 198° |
| 2026-05-08 01:34 | 45.32565 | -122.75899 | 5983 ft | 154 kts | 198° |
| 2026-05-08 01:34 | 45.31594 | -122.76281 | 5983 ft | 154 kts | 198° |
| 2026-05-08 01:34 | 45.30632 | -122.76660 | 5984 ft | 154 kts | 198° |
| 2026-05-08 01:35 | 45.29661 | -122.77042 | 5984 ft | 155 kts | 198° |
| 2026-05-08 01:35 | 45.28711 | -122.77416 | 5984 ft | 155 kts | 198° |
| 2026-05-08 01:35 | 45.27719 | -122.77805 | 5984 ft | 155 kts | 198° |
| 2026-05-08 01:35 | 45.26746 | -122.78188 | 5983 ft | 155 kts | 198° |
| 2026-05-08 01:36 | 45.25731 | -122.78587 | 5979 ft | 155 kts | 198° |
| 2026-05-08 01:36 | 45.24767 | -122.78964 | 5976 ft | 155 kts | 198° |
| 2026-05-08 01:36 | 45.23781 | -122.79351 | 5972 ft | 155 kts | 199° |
| 2026-05-08 01:36 | 45.22861 | -122.79942 | 5967 ft | 153 kts | 204° |
| 2026-05-08 01:37 | 45.21866 | -122.80283 | 5969 ft | 154 kts | 197° |
| 2026-05-08 01:37 | 45.20885 | -122.80617 | 5970 ft | 155 kts | 196° |
| 2026-05-08 01:37 | 45.19895 | -122.80966 | 5971 ft | 155 kts | 197° |
| 2026-05-08 01:37 | 45.18900 | -122.81325 | 5973 ft | 155 kts | 197° |
| 2026-05-08 01:38 | 45.17921 | -122.81688 | 5974 ft | 154 kts | 197° |
| 2026-05-08 01:38 | 45.16951 | -122.82054 | 5977 ft | 154 kts | 197° |
| 2026-05-08 01:38 | 45.15971 | -122.82430 | 5979 ft | 154 kts | 198° |
| 2026-05-08 01:38 | 45.14982 | -122.82809 | 5981 ft | 154 kts | 198° |
| 2026-05-08 01:39 | 45.14023 | -122.83180 | 5981 ft | 154 kts | 197° |
| 2026-05-08 01:39 | 45.13042 | -122.83562 | 5981 ft | 154 kts | 198° |
| 2026-05-08 01:39 | 45.12066 | -122.83940 | 5981 ft | 154 kts | 198° |
| 2026-05-08 01:39 | 45.11105 | -122.84313 | 5981 ft | 154 kts | 198° |
| 2026-05-08 01:40 | 45.10142 | -122.84689 | 5981 ft | 155 kts | 198° |
| 2026-05-08 01:40 | 45.09178 | -122.85064 | 5981 ft | 155 kts | 198° |
| 2026-05-08 01:40 | 45.08209 | -122.85442 | 5981 ft | 155 kts | 198° |
| 2026-05-08 01:40 | 45.07240 | -122.85821 | 5982 ft | 155 kts | 198° |
| 2026-05-08 01:41 | 45.06291 | -122.86189 | 5981 ft | 155 kts | 198° |
| 2026-05-08 01:41 | 45.05344 | -122.86558 | 5981 ft | 155 kts | 198° |
| 2026-05-08 01:41 | 45.04388 | -122.86930 | 5981 ft | 154 kts | 198° |
| 2026-05-08 01:41 | 45.03440 | -122.87299 | 5980 ft | 154 kts | 198° |
| 2026-05-08 01:42 | 45.02480 | -122.87674 | 5980 ft | 154 kts | 198° |
| 2026-05-08 01:42 | 45.01534 | -122.88042 | 5979 ft | 154 kts | 198° |
| 2026-05-08 01:42 | 45.00575 | -122.88416 | 5979 ft | 154 kts | 198° |
| 2026-05-08 01:42 | 44.99627 | -122.88786 | 5979 ft | 153 kts | 198° |
| 2026-05-08 01:43 | 44.98665 | -122.89159 | 5979 ft | 153 kts | 198° |
| 2026-05-08 01:43 | 44.97695 | -122.89535 | 5980 ft | 153 kts | 198° |
| 2026-05-08 01:43 | 44.96733 | -122.89908 | 5980 ft | 154 kts | 198° |
| 2026-05-08 01:43 | 44.95783 | -122.90276 | 5980 ft | 154 kts | 198° |
| 2026-05-08 01:44 | 44.94829 | -122.90646 | 5981 ft | 154 kts | 198° |
| 2026-05-08 01:44 | 44.93865 | -122.91022 | 5981 ft | 155 kts | 198° |
| 2026-05-08 01:44 | 44.92920 | -122.91386 | 5980 ft | 155 kts | 198° |
| 2026-05-08 01:44 | 44.91969 | -122.91756 | 5980 ft | 155 kts | 198° |
| 2026-05-08 01:45 | 44.91016 | -122.92126 | 5980 ft | 155 kts | 198° |
| 2026-05-08 01:45 | 44.90062 | -122.92495 | 5981 ft | 155 kts | 198° |
| 2026-05-08 01:45 | 44.89097 | -122.92867 | 5981 ft | 155 kts | 198° |
| 2026-05-08 01:45 | 44.88145 | -122.93237 | 5980 ft | 155 kts | 198° |
| 2026-05-08 01:46 | 44.87184 | -122.93607 | 5979 ft | 154 kts | 198° |
| 2026-05-08 01:46 | 44.86232 | -122.93976 | 5978 ft | 154 kts | 198° |
| 2026-05-08 01:46 | 44.85288 | -122.94341 | 5978 ft | 154 kts | 198° |
| 2026-05-08 01:46 | 44.84335 | -122.94710 | 5978 ft | 154 kts | 198° |
| 2026-05-08 01:47 | 44.83383 | -122.95080 | 5981 ft | 154 kts | 198° |
| 2026-05-08 01:47 | 44.82435 | -122.95445 | 5985 ft | 155 kts | 198° |
| 2026-05-08 01:47 | 44.81475 | -122.95818 | 5977 ft | 155 kts | 198° |
| 2026-05-08 01:48 | 44.79504 | -122.96580 | 5973 ft | 154 kts | 198° |
| 2026-05-08 01:48 | 44.78527 | -122.96957 | 5973 ft | 153 kts | 198° |
| 2026-05-08 01:48 | 44.77546 | -122.97334 | 5969 ft | 153 kts | 198° |
| 2026-05-08 01:48 | 44.76576 | -122.97707 | 5976 ft | 153 kts | 198° |
| 2026-05-08 01:49 | 44.75571 | -122.98094 | 5976 ft | 154 kts | 198° |
| 2026-05-08 01:49 | 44.74604 | -122.98468 | 5976 ft | 154 kts | 198° |
| 2026-05-08 01:49 | 44.73603 | -122.98853 | 5981 ft | 154 kts | 198° |
| 2026-05-08 01:49 | 44.72617 | -122.99232 | 5978 ft | 155 kts | 198° |
| 2026-05-08 01:50 | 44.71653 | -122.99603 | 5970 ft | 155 kts | 198° |
| 2026-05-08 01:50 | 44.70690 | -122.99974 | 5868 ft | 157 kts | 198° |
| 2026-05-08 01:50 | 44.69714 | -123.00349 | 5760 ft | 157 kts | 198° |
| 2026-05-08 01:50 | 44.68767 | -123.00713 | 5651 ft | 157 kts | 198° |
| 2026-05-08 01:51 | 44.67808 | -123.01080 | 5547 ft | 156 kts | 198° |
| 2026-05-08 01:51 | 44.66850 | -123.01449 | 5428 ft | 156 kts | 198° |
| 2026-05-08 01:51 | 44.65906 | -123.01810 | 5253 ft | 160 kts | 198° |
| 2026-05-08 01:51 | 44.64919 | -123.02193 | 5108 ft | 160 kts | 197° |
| 2026-05-08 01:52 | 44.63954 | -123.02562 | 5005 ft | 158 kts | 197° |
| 2026-05-08 01:52 | 44.63000 | -123.02928 | 4890 ft | 156 kts | 197° |
| 2026-05-08 01:52 | 44.62055 | -123.03291 | 4779 ft | 156 kts | 197° |
| 2026-05-08 01:52 | 44.61087 | -123.03662 | 4641 ft | 155 kts | 197° |
| 2026-05-08 01:53 | 44.60138 | -123.04025 | 4530 ft | 153 kts | 197° |
| 2026-05-08 01:53 | 44.59200 | -123.04382 | 4454 ft | 149 kts | 197° |
| 2026-05-08 01:53 | 44.58288 | -123.04732 | 4394 ft | 147 kts | 197° |
| 2026-05-08 01:53 | 44.57403 | -123.05069 | 4329 ft | 146 kts | 197° |
| 2026-05-08 01:54 | 44.56510 | -123.05411 | 4249 ft | 145 kts | 197° |
| 2026-05-08 01:54 | 44.55618 | -123.05753 | 4175 ft | 145 kts | 197° |
| 2026-05-08 01:54 | 44.54732 | -123.06091 | 4102 ft | 144 kts | 197° |
| 2026-05-08 01:54 | 44.53852 | -123.06428 | 4030 ft | 144 kts | 197° |
| 2026-05-08 01:55 | 44.52959 | -123.06770 | 3973 ft | 144 kts | 197° |
| 2026-05-08 01:55 | 44.52094 | -123.07100 | 3957 ft | 140 kts | 197° |
| 2026-05-08 01:55 | 44.51250 | -123.07421 | 3951 ft | 137 kts | 197° |
| 2026-05-08 01:55 | 44.50428 | -123.07735 | 3950 ft | 134 kts | 197° |
| 2026-05-08 01:56 | 44.49607 | -123.08050 | 3961 ft | 132 kts | 197° |
| 2026-05-08 01:56 | 44.48770 | -123.08368 | 3963 ft | 130 kts | 197° |
| 2026-05-08 01:56 | 44.47954 | -123.08719 | 3860 ft | 136 kts | 207° |
| 2026-05-08 01:56 | 44.47355 | -123.09662 | 3759 ft | 138 kts | 240° |
| 2026-05-08 01:57 | 44.46913 | -123.10776 | 3659 ft | 140 kts | 242° |
| 2026-05-08 01:57 | 44.46490 | -123.11897 | 3601 ft | 139 kts | 242° |
| 2026-05-08 01:57 | 44.46075 | -123.13000 | 3597 ft | 136 kts | 242° |
| 2026-05-08 01:57 | 44.45670 | -123.14078 | 3591 ft | 133 kts | 242° |
| 2026-05-08 01:58 | 44.45257 | -123.15175 | 3589 ft | 131 kts | 242° |
| 2026-05-08 01:58 | 44.44832 | -123.16299 | 3581 ft | 130 kts | 242° |
| 2026-05-08 01:58 | 44.44414 | -123.17391 | 3582 ft | 128 kts | 243° |
| 2026-05-08 01:58 | 44.43996 | -123.18475 | 3580 ft | 126 kts | 242° |
| 2026-05-08 01:59 | 44.43583 | -123.19546 | 3590 ft | 125 kts | 242° |
| 2026-05-08 01:59 | 44.43081 | -123.20523 | 3593 ft | 127 kts | 216° |
| 2026-05-08 01:59 | 44.42228 | -123.20830 | 3514 ft | 136 kts | 182° |
| 2026-05-08 01:59 | 44.41305 | -123.20777 | 3389 ft | 142 kts | 178° |
| 2026-05-08 02:00 | 44.40384 | -123.20721 | 3258 ft | 144 kts | 179° |
| 2026-05-08 02:00 | 44.39462 | -123.20674 | 3128 ft | 145 kts | 176° |
| 2026-05-08 02:00 | 44.38509 | -123.20616 | 2986 ft | 146 kts | 181° |
| 2026-05-08 02:00 | 44.37544 | -123.20613 | 2848 ft | 146 kts | 180° |
| 2026-05-08 02:01 | 44.36609 | -123.20610 | 2715 ft | 146 kts | 180° |
| 2026-05-08 02:01 | 44.35686 | -123.20602 | 2588 ft | 146 kts | 180° |
| 2026-05-08 02:01 | 44.34746 | -123.20591 | 2459 ft | 147 kts | 180° |
| 2026-05-08 02:01 | 44.33801 | -123.20580 | 2323 ft | 145 kts | 179° |
| 2026-05-08 02:02 | 44.32836 | -123.20567 | 2177 ft | 141 kts | 179° |
| 2026-05-08 02:02 | 44.31873 | -123.20553 | 2027 ft | 138 kts | 179° |
| 2026-05-08 02:02 | 44.30939 | -123.20538 | 1985 ft | 129 kts | 179° |
| 2026-05-08 02:02 | 44.30075 | -123.20523 | 1976 ft | 120 kts | 179° |
| 2026-05-08 02:03 | 44.29289 | -123.20509 | 1976 ft | 113 kts | 179° |
| 2026-05-08 02:03 | 44.28544 | -123.20498 | 1975 ft | 108 kts | 179° |
| 2026-05-08 02:03 | 44.27858 | -123.20488 | 2009 ft | 92 kts | 179° |
| 2026-05-08 02:03 | 44.27253 | -123.20480 | 1982 ft | 89 kts | 179° |
| 2026-05-08 02:04 | 44.26655 | -123.20473 | 1989 ft | 92 kts | 179° |
| 2026-05-08 02:04 | 44.26038 | -123.20466 | 1987 ft | 94 kts | 179° |
| 2026-05-08 02:04 | 44.25375 | -123.20457 | 1992 ft | 97 kts | 180° |
| 2026-05-08 02:04 | 44.24692 | -123.20447 | 1990 ft | 99 kts | 180° |
| 2026-05-08 02:05 | 44.24013 | -123.20437 | 1989 ft | 100 kts | 180° |
| 2026-05-08 02:05 | 44.23312 | -123.20427 | 1988 ft | 100 kts | 180° |
| 2026-05-08 02:05 | 44.22622 | -123.20416 | 1989 ft | 100 kts | 179° |
| 2026-05-08 02:05 | 44.21929 | -123.20406 | 1985 ft | 100 kts | 179° |
| 2026-05-08 02:06 | 44.21223 | -123.20395 | 1866 ft | 104 kts | 179° |
| 2026-05-08 02:06 | 44.20534 | -123.20390 | 1742 ft | 103 kts | 181° |
| 2026-05-08 02:06 | 44.19859 | -123.20418 | 1612 ft | 102 kts | 181° |
| 2026-05-08 02:06 | 44.19168 | -123.20409 | 1479 ft | 101 kts | 179° |
| 2026-05-08 02:07 | 44.18481 | -123.20390 | 1362 ft | 99 kts | 179° |
| 2026-05-08 02:07 | 44.17816 | -123.20372 | 1237 ft | 99 kts | 179° |
| 2026-05-08 02:07 | 44.17143 | -123.20357 | 1094 ft | 99 kts | 180° |
| 2026-05-08 02:07 | 44.16494 | -123.20340 | 980 ft | 96 kts | 178° |
| 2026-05-08 02:08 | 44.15870 | -123.20316 | 872 ft | 95 kts | 179° |
| 2026-05-08 02:08 | 44.15253 | -123.20297 | 777 ft | 92 kts | 179° |
| 2026-05-08 02:08 | 44.14647 | -123.20286 | 674 ft | 92 kts | 179° |
| 2026-05-08 02:08 | 44.14067 | -123.20283 | 575 ft | 88 kts | 180° |
| 2026-05-08 02:09 | 44.13505 | -123.20280 | 443 ft | 84 kts | 179° |
| 2026-05-08 02:09 | 44.12993 | -123.20276 | 362 ft | 69 kts | 179° |
| 2026-05-08 02:09 | 44.12616 | -123.20267 | 365 ft | 48 kts | 178° |
| 2026-05-08 02:09 | 44.12340 | -123.20261 | 368 ft | 34 kts | 180° |
| 2026-05-08 02:10 | 44.12186 | -123.20269 | 368 ft | 9 kts | 204° |
| 2026-05-08 02:10 | 44.12177 | -123.20291 | 368 ft | 5 kts | 260° |
| 2026-05-08 02:10 | 44.12174 | -123.20334 | 368 ft | 3 kts | 269° |
| 2026-05-08 02:10 | 44.12174 | -123.20353 | 368 ft | 2 kts | 270° |
| 2026-05-08 02:11 | 44.12172 | -123.20385 | 368 ft | 5 kts | 265° |
| 2026-05-08 02:11 | 44.12173 | -123.20443 | 368 ft | 7 kts | 273° |
| 2026-05-08 02:11 | 44.12205 | -123.20480 | 368 ft | 8 kts | 44° |
| 2026-05-08 02:11 | 44.12215 | -123.20461 | 368 ft | 3 kts | 54° |
| 2026-05-08 02:12 | 44.12280 | -123.20418 | 368 ft | 21 kts | 4° |
| 2026-05-08 02:12 | 44.12465 | -123.20417 | 365 ft | 32 kts | 0° |
| 2026-05-08 02:12 | 44.12585 | -123.20425 | 363 ft | 10 kts | 335° |
| 2026-05-08 02:12 | 44.12603 | -123.20448 | 362 ft | 4 kts | 286° |
| 2026-05-08 02:13 | 44.12600 | -123.20529 | 362 ft | 12 kts | 266° |
| 2026-05-08 02:13 | 44.12599 | -123.20660 | 362 ft | 17 kts | 269° |
| 2026-05-08 02:13 | 44.12598 | -123.20831 | 363 ft | 20 kts | 270° |
| 2026-05-08 02:13 | 44.12590 | -123.20996 | 361 ft | 10 kts | 249° |
| 2026-05-08 02:14 | 44.12555 | -123.21030 | 361 ft | 12 kts | 204° |
| 2026-05-08 02:14 | 44.12443 | -123.21030 | 362 ft | 20 kts | 180° |
| 2026-05-08 02:14 | 44.12330 | -123.21088 | 364 ft | 14 kts | 213° |
| 2026-05-08 02:14 | 44.12254 | -123.21171 | 364 ft | 14 kts | 214° |
| 2026-05-08 02:15 | 44.12180 | -123.21225 | 364 ft | 10 kts | 204° |
| 2026-05-08 02:15 | 44.12136 | -123.21271 | 365 ft | 7 kts | 259° |
| 2026-05-08 02:15 | 44.12146 | -123.21332 | 365 ft | 5 kts | 310° |
| 2026-05-08 02:15 | 44.12148 | -123.21335 | 365 ft | 0 kts | 323° |